createdAt,value
2018-09-19T00:00:56.262Z,5.20
2018-09-19T00:03:24.483Z,5.57
2018-09-19T00:05:52.709Z,6.07
2018-09-19T00:08:20.928Z,5.57
2018-09-19T00:10:49.221Z,6.03
2018-09-19T00:13:17.432Z,5.33
2018-09-19T00:15:45.637Z,5.40
2018-09-19T00:18:13.877Z,4.80
2018-09-19T00:20:42.106Z,4.50
2018-09-19T00:23:10.351Z,4.90
2018-09-19T00:25:38.523Z,4.93
2018-09-19T00:28:06.758Z,4.67
2018-09-19T00:30:34.994Z,4.80
2018-09-19T00:33:03.209Z,5.13
2018-09-19T00:35:31.489Z,5.17
2018-09-19T00:37:59.712Z,4.73
2018-09-19T00:40:27.930Z,4.90
2018-09-19T00:42:56.144Z,5.40
2018-09-19T00:45:24.362Z,5.30
2018-09-19T00:47:52.570Z,4.67
2018-09-19T00:50:20.829Z,4.73
2018-09-19T00:52:49.038Z,4.60
2018-09-19T00:55:17.250Z,4.70
2018-09-19T00:57:45.461Z,5.13
2018-09-19T01:00:13.732Z,5.13
2018-09-19T01:02:41.948Z,4.93
2018-09-19T01:05:10.155Z,4.80
2018-09-19T01:07:38.379Z,5.17
2018-09-19T01:10:06.639Z,4.90
2018-09-19T01:12:34.853Z,5.17
2018-09-19T01:15:03.106Z,5.10
2018-09-19T01:17:31.389Z,4.80
2018-09-19T01:19:59.603Z,4.80
2018-09-19T01:22:27.854Z,4.90
2018-09-19T01:24:56.062Z,5.20
2018-09-19T01:27:24.288Z,5.27
2018-09-19T01:29:52.489Z,5.40
2018-09-19T01:32:20.726Z,5.00
2018-09-19T01:34:48.952Z,4.87
2018-09-19T01:37:17.153Z,5.40
2018-09-19T01:39:45.374Z,5.90
2018-09-19T01:42:13.582Z,5.83
2018-09-19T01:44:41.807Z,5.13
2018-09-19T01:47:10.107Z,6.00
2018-09-19T01:49:38.370Z,6.80
2018-09-19T01:52:06.751Z,7.37
2018-09-19T01:54:34.988Z,6.90
2018-09-19T01:57:03.173Z,6.87
2018-09-19T01:59:31.385Z,7.20
2018-09-19T02:01:59.623Z,7.43
2018-09-19T02:04:27.825Z,6.90
2018-09-19T02:06:56.045Z,6.47
2018-09-19T02:09:24.253Z,6.10
2018-09-19T02:11:52.466Z,6.43
2018-09-19T02:14:20.684Z,6.00
2018-09-19T02:16:48.926Z,6.13
2018-09-19T02:19:17.158Z,6.50
2018-09-19T02:21:45.382Z,7.10
2018-09-19T02:24:13.593Z,6.00
2018-09-19T02:26:41.801Z,6.57
2018-09-19T02:29:10.032Z,6.63
2018-09-19T02:31:38.280Z,6.70
2018-09-19T02:34:06.720Z,6.40
2018-09-19T02:36:34.943Z,6.40
2018-09-19T02:39:03.726Z,6.50
2018-09-19T02:41:31.946Z,5.77
2018-09-19T02:44:00.166Z,6.43
2018-09-19T02:46:28.387Z,6.13
2018-09-19T02:48:56.633Z,6.30
2018-09-19T02:51:24.846Z,5.60
2018-09-19T02:53:53.077Z,5.73
2018-09-19T02:56:21.309Z,5.57
2018-09-19T02:58:49.604Z,5.57
2018-09-19T03:01:17.823Z,5.47
2018-09-19T03:03:46.025Z,5.30
2018-09-19T03:06:14.235Z,5.30
2018-09-19T03:08:42.438Z,5.83
2018-09-19T03:11:10.663Z,5.70
2018-09-19T03:13:38.884Z,6.20
2018-09-19T03:16:07.147Z,5.50
2018-09-19T03:18:35.399Z,6.00
2018-09-19T03:21:03.718Z,6.33
2018-09-19T03:23:31.946Z,6.37
2018-09-19T03:26:00.162Z,5.67
2018-09-19T03:28:28.382Z,6.70
2018-09-19T03:30:56.635Z,6.13
2018-09-19T03:33:24.861Z,6.27
2018-09-19T03:35:53.097Z,6.17
2018-09-19T03:38:21.318Z,6.43
2018-09-19T03:40:49.541Z,5.87
2018-09-19T03:43:17.747Z,6.40
2018-09-19T03:45:45.972Z,5.40
2018-09-19T03:48:14.185Z,6.10
2018-09-19T03:50:42.393Z,6.20
2018-09-19T03:53:10.610Z,6.70
2018-09-19T03:55:38.849Z,6.70
2018-09-19T03:58:07.088Z,6.00
2018-09-19T04:00:35.274Z,6.60
2018-09-19T04:03:03.493Z,6.37
2018-09-19T04:05:31.714Z,6.20
2018-09-19T04:07:59.929Z,5.87
2018-09-19T04:10:28.150Z,6.10
2018-09-19T04:12:56.361Z,5.97
2018-09-19T04:15:24.572Z,6.30
2018-09-19T04:17:52.887Z,6.90
2018-09-19T04:20:21.016Z,6.33
2018-09-19T04:22:49.247Z,7.10
2018-09-19T04:25:17.458Z,6.67
2018-09-19T04:27:45.669Z,6.70
2018-09-19T04:30:13.875Z,6.30
2018-09-19T04:32:42.134Z,6.83
2018-09-19T04:35:10.352Z,6.67
2018-09-19T04:37:38.557Z,6.83
2018-09-19T04:40:06.816Z,6.10
2018-09-19T04:42:35.035Z,6.60
2018-09-19T04:45:03.286Z,6.27
2018-09-19T04:47:31.480Z,6.03
2018-09-19T04:49:59.707Z,6.63
2018-09-19T04:52:27.937Z,6.27
2018-09-19T04:54:56.177Z,7.23
2018-09-19T04:57:24.357Z,6.50
2018-09-19T04:59:52.577Z,7.30
2018-09-19T05:02:20.809Z,6.67
2018-09-19T05:04:49.032Z,6.30
2018-09-19T05:07:17.423Z,6.73
2018-09-19T05:09:45.561Z,7.30
2018-09-19T05:12:13.791Z,6.90
2018-09-19T05:14:42.001Z,7.03
2018-09-19T05:17:10.223Z,6.90
2018-09-19T05:19:38.512Z,6.73
2018-09-19T05:22:06.701Z,7.67
2018-09-19T05:24:34.918Z,7.87
2018-09-19T05:27:03.139Z,7.03
2018-09-19T05:29:31.395Z,7.50
2018-09-19T05:31:59.609Z,7.93
2018-09-19T05:34:27.835Z,6.67
2018-09-19T05:36:56.058Z,6.90
2018-09-19T05:39:24.284Z,6.87
2018-09-19T05:41:52.493Z,7.07
2018-09-19T05:44:20.723Z,6.67
2018-09-19T05:46:48.925Z,6.80
2018-09-19T05:49:17.143Z,7.17
2018-09-19T05:51:45.375Z,7.07
2018-09-19T05:54:13.590Z,8.00
2018-09-19T05:56:41.812Z,7.40
2018-09-19T05:59:10.066Z,7.90
2018-09-19T06:01:38.278Z,7.80
2018-09-19T06:04:06.674Z,7.23
2018-09-19T06:06:34.902Z,7.77
2018-09-19T06:09:03.210Z,7.87
2018-09-19T06:11:31.438Z,7.43
2018-09-19T06:13:59.651Z,7.93
2018-09-19T06:16:27.885Z,7.40
2018-09-19T06:18:56.108Z,7.40
2018-09-19T06:21:24.330Z,7.33
2018-09-19T06:23:52.529Z,7.83
2018-09-19T06:26:21.729Z,7.77
2018-09-19T06:28:49.964Z,8.20
2018-09-19T06:31:18.202Z,7.30
2018-09-19T06:33:46.419Z,7.67
2018-09-19T06:36:14.629Z,9.13
2018-09-19T06:38:42.852Z,8.50
2018-09-19T06:41:11.078Z,7.70
2018-09-19T06:43:39.285Z,7.70
2018-09-19T06:46:07.559Z,7.80
2018-09-19T06:48:35.789Z,8.23
2018-09-19T06:51:04.014Z,8.37
2018-09-19T06:53:32.241Z,7.63
2018-09-19T06:56:00.466Z,7.30
2018-09-19T06:58:28.759Z,7.37
2018-09-19T07:00:56.976Z,7.57
2018-09-19T07:03:25.208Z,7.50
2018-09-19T07:05:53.495Z,7.77
2018-09-19T07:08:21.662Z,6.67
2018-09-19T07:10:49.875Z,7.20
2018-09-19T07:13:18.083Z,7.53
2018-09-19T07:15:46.327Z,7.10
2018-09-19T07:18:14.560Z,6.53
2018-09-19T07:20:42.813Z,7.17
2018-09-19T07:23:11.041Z,6.43
2018-09-19T07:25:39.296Z,6.77
2018-09-19T07:28:07.513Z,6.80
2018-09-19T07:30:35.734Z,6.83
2018-09-19T07:33:03.961Z,6.60
2018-09-19T07:35:32.178Z,7.27
2018-09-19T07:38:00.376Z,6.87
2018-09-19T07:40:28.596Z,6.43
2018-09-19T07:42:56.809Z,6.70
2018-09-19T07:45:25.046Z,6.23
2018-09-19T07:47:53.257Z,6.67
2018-09-19T07:50:21.486Z,6.50
2018-09-19T07:52:49.800Z,6.73
2018-09-19T07:55:18.049Z,6.30
2018-09-19T07:57:46.259Z,6.93
2018-09-19T08:00:14.464Z,6.43
2018-09-19T08:02:42.700Z,6.60
2018-09-19T08:05:10.948Z,6.60
2018-09-19T08:07:39.629Z,6.20
2018-09-19T08:10:07.849Z,6.63
2018-09-19T08:12:36.094Z,6.33
2018-09-19T08:15:04.373Z,6.40
2018-09-19T08:17:32.597Z,6.00
2018-09-19T08:20:00.831Z,6.43
2018-09-19T08:22:29.068Z,6.00
2018-09-19T08:24:57.278Z,6.17
2018-09-19T08:27:25.503Z,6.13
2018-09-19T08:29:53.708Z,6.27
2018-09-19T08:32:21.938Z,5.90
2018-09-19T08:34:50.153Z,5.70
2018-09-19T08:37:18.436Z,5.87
2018-09-19T08:39:46.633Z,5.87
2018-09-19T08:42:14.851Z,6.17
2018-09-19T08:44:43.783Z,6.20
2018-09-19T08:47:11.992Z,5.40
2018-09-19T08:49:40.218Z,5.83
2018-09-19T08:52:08.453Z,5.67
2018-09-19T08:54:36.673Z,5.40
2018-09-19T08:57:04.909Z,5.20
2018-09-19T08:59:33.106Z,5.50
2018-09-19T09:02:01.329Z,5.50
2018-09-19T09:04:29.622Z,5.77
2018-09-19T09:06:57.835Z,5.60
2018-09-19T09:09:27.116Z,6.00
2018-09-19T09:11:55.592Z,5.80
2018-09-19T09:14:23.816Z,5.87
2018-09-19T09:16:52.017Z,5.33
2018-09-19T09:19:20.269Z,5.70
2018-09-19T09:21:48.638Z,4.90
2018-09-19T09:24:16.923Z,4.77
2018-09-19T09:26:45.485Z,4.87
2018-09-19T09:29:13.682Z,4.97
2018-09-19T09:31:43.235Z,4.80
2018-09-19T09:34:11.615Z,4.57
2018-09-19T09:36:39.816Z,5.20
2018-09-19T09:39:08.148Z,4.63
2018-09-19T09:41:36.380Z,5.20
2018-09-19T09:44:04.613Z,4.90
2018-09-19T09:46:32.835Z,5.13
2018-09-19T09:49:01.042Z,4.97
2018-09-19T09:51:29.408Z,4.53
2018-09-19T09:53:57.960Z,4.90
2018-09-19T09:56:26.176Z,4.60
2018-09-19T09:58:54.379Z,5.10
2018-09-19T10:01:22.606Z,4.87
2018-09-19T10:03:50.813Z,5.40
2018-09-19T10:06:19.051Z,5.27
2018-09-19T10:08:47.252Z,5.30
2018-09-19T10:11:15.473Z,5.07
2018-09-19T10:13:43.805Z,4.93
2018-09-19T10:16:11.947Z,5.00
2018-09-19T10:18:40.188Z,5.37
2018-09-19T10:21:08.403Z,5.00
2018-09-19T10:23:36.605Z,5.00
2018-09-19T10:26:04.864Z,5.03
2018-09-19T10:28:33.118Z,5.10
2018-09-19T10:31:01.357Z,4.97
2018-09-19T10:33:29.687Z,5.13
2018-09-19T10:35:57.890Z,5.10
2018-09-19T10:38:26.113Z,5.30
2018-09-19T10:40:54.343Z,5.43
2018-09-19T10:43:22.580Z,5.87
2018-09-19T10:45:50.780Z,4.77
2018-09-19T10:48:19.027Z,4.30
2018-09-19T10:50:47.270Z,4.70
2018-09-19T10:53:15.485Z,4.90
2018-09-19T10:55:43.757Z,4.27
2018-09-19T10:58:11.962Z,4.73
2018-09-19T11:00:40.193Z,4.37
2018-09-19T11:03:08.413Z,4.80
2018-09-19T11:05:36.659Z,4.60
2018-09-19T11:08:04.897Z,4.60
2018-09-19T11:10:33.210Z,4.50
2018-09-19T11:13:01.442Z,4.60
2018-09-19T11:15:29.670Z,4.83
2018-09-19T11:17:57.942Z,4.67
2018-09-19T11:20:26.218Z,4.63
2018-09-19T11:22:54.440Z,5.00
2018-09-19T11:25:22.676Z,4.77
2018-09-19T11:27:50.978Z,4.67
2018-09-19T11:30:19.210Z,5.23
2018-09-19T11:32:47.439Z,4.70
2018-09-19T11:35:15.662Z,4.77
2018-09-19T11:37:43.894Z,4.40
2018-09-19T11:40:12.140Z,4.90
2018-09-19T11:42:40.371Z,4.60
2018-09-19T11:45:08.578Z,4.03
2018-09-19T11:47:36.885Z,4.30
2018-09-19T11:50:05.314Z,4.40
2018-09-19T11:52:33.562Z,4.70
2018-09-19T11:55:01.798Z,4.60
2018-09-19T11:57:30.026Z,4.60
2018-09-19T11:59:58.355Z,4.10
2018-09-19T12:02:26.580Z,4.60
2018-09-19T12:04:54.845Z,4.90
2018-09-19T12:07:23.115Z,4.50
2018-09-19T12:09:51.454Z,4.90
2018-09-19T12:12:20.267Z,4.87
2018-09-19T12:14:48.536Z,4.30
2018-09-19T12:17:16.762Z,4.60
2018-09-19T12:19:45.464Z,4.47
2018-09-19T12:22:16.765Z,4.50
2018-09-19T12:24:45.557Z,4.40
2018-09-19T12:27:13.793Z,4.37
2018-09-19T12:29:42.042Z,4.23
2018-09-19T12:32:10.303Z,4.53
2018-09-19T12:34:38.518Z,4.73
2018-09-19T12:37:06.838Z,4.40
2018-09-19T12:39:35.073Z,4.40
2018-09-19T12:42:03.290Z,4.40
2018-09-19T12:44:31.542Z,4.40
2018-09-19T12:46:59.764Z,4.57
2018-09-19T12:49:27.981Z,4.20
2018-09-19T12:51:56.316Z,4.33
2018-09-19T12:54:24.526Z,4.50
2018-09-19T12:56:52.773Z,4.47
2018-09-19T12:59:21.037Z,4.57
2018-09-19T13:01:49.271Z,4.60
2018-09-19T13:04:17.502Z,4.53
2018-09-19T13:06:45.757Z,4.43
2018-09-19T13:09:14.010Z,5.13
2018-09-19T13:11:42.249Z,4.63
2018-09-19T13:14:10.453Z,4.63
2018-09-19T13:16:38.681Z,4.00
2018-09-19T13:19:06.918Z,4.63
2018-09-19T13:21:35.138Z,4.70
2018-09-19T13:24:03.386Z,4.70
2018-09-19T13:26:31.609Z,4.40
2018-09-19T13:28:59.830Z,4.70
2018-09-19T13:31:28.049Z,4.27
2018-09-19T13:33:56.308Z,4.80
2018-09-19T13:36:24.526Z,4.27
2018-09-19T13:38:52.750Z,4.50
2018-09-19T13:41:20.978Z,4.67
2018-09-19T13:43:49.186Z,4.33
2018-09-19T13:46:17.438Z,4.80
2018-09-19T13:48:49.011Z,4.50
2018-09-19T13:51:21.610Z,4.57
2018-09-19T13:53:49.845Z,4.50
2018-09-19T13:56:18.079Z,4.27
2018-09-19T13:58:46.479Z,4.20
2018-09-19T14:01:14.726Z,4.20
2018-09-19T14:03:42.974Z,4.63
2018-09-19T14:06:11.249Z,4.87
2018-09-19T14:08:39.481Z,4.30
2018-09-19T14:11:07.763Z,4.23
2018-09-19T14:13:35.992Z,4.40
2018-09-19T14:16:04.211Z,4.60
2018-09-19T14:18:32.579Z,4.13
2018-09-19T14:21:00.862Z,3.90
2018-09-19T14:23:29.178Z,4.20
2018-09-19T14:25:57.438Z,4.30
2018-09-19T14:28:25.694Z,4.20
2018-09-19T14:30:53.892Z,4.17
2018-09-19T14:33:22.141Z,4.20
2018-09-19T14:35:50.426Z,3.83
2018-09-19T14:38:18.645Z,4.10
2018-09-19T14:40:46.871Z,4.53
2018-09-19T14:43:15.097Z,4.27
2018-09-19T14:45:46.646Z,4.40
2018-09-19T14:48:14.857Z,4.33
2018-09-19T14:50:43.076Z,4.30
2018-09-19T14:53:11.290Z,4.70
2018-09-19T14:55:39.623Z,4.20
2018-09-19T14:58:07.958Z,3.60
2018-09-19T15:00:36.201Z,3.80
2018-09-19T15:03:04.447Z,4.07
2018-09-19T15:05:32.681Z,4.00
2018-09-19T15:08:00.961Z,4.30
2018-09-19T15:10:29.167Z,4.43
2018-09-19T15:12:57.420Z,4.37
2018-09-19T15:15:25.685Z,4.47
2018-09-19T15:17:53.961Z,4.57
2018-09-19T15:20:22.312Z,4.20
2018-09-19T15:22:50.542Z,4.07
2018-09-19T15:25:18.766Z,4.20
2018-09-19T15:27:47.027Z,4.47
2018-09-19T15:30:16.122Z,4.20
2018-09-19T15:32:45.162Z,4.33
2018-09-19T15:35:14.041Z,4.30
2018-09-19T15:37:42.268Z,4.70
2018-09-19T15:40:11.295Z,4.23
2018-09-19T15:42:39.569Z,4.50
2018-09-19T15:45:07.770Z,4.17
2018-09-19T15:47:35.985Z,4.40
2018-09-19T15:50:04.253Z,4.37
2018-09-19T15:52:32.531Z,4.47
2018-09-19T15:55:00.817Z,4.20
2018-09-19T15:57:29.100Z,4.33
2018-09-19T15:59:57.554Z,4.50
2018-09-19T16:02:25.761Z,4.40
2018-09-19T16:04:54.046Z,4.07
2018-09-19T16:07:23.015Z,4.43
2018-09-19T16:09:51.297Z,4.30
2018-09-19T16:12:20.473Z,4.60
2018-09-19T16:14:48.664Z,4.57
2018-09-19T16:17:17.155Z,4.73
2018-09-19T16:19:45.493Z,4.83
2018-09-19T16:22:13.782Z,4.33
2018-09-19T16:24:41.998Z,4.20
2018-09-19T16:27:10.253Z,4.33
2018-09-19T16:29:38.526Z,4.87
2018-09-19T16:32:09.183Z,4.70
2018-09-19T16:34:37.405Z,4.13
2018-09-19T16:37:05.646Z,4.50
2018-09-19T16:39:33.870Z,4.53
2018-09-19T16:42:02.078Z,4.60
2018-09-19T16:44:30.343Z,4.40
2018-09-19T16:46:58.614Z,4.33
2018-09-19T16:49:27.115Z,4.70
2018-09-19T16:51:55.345Z,4.77
2018-09-19T16:54:23.581Z,4.50
2018-09-19T16:56:51.800Z,4.27
2018-09-19T16:59:20.031Z,4.77
2018-09-19T17:01:48.288Z,4.40
2018-09-19T17:04:16.513Z,4.77
2018-09-19T17:06:44.753Z,5.00
2018-09-19T17:09:12.962Z,4.73
2018-09-19T17:11:41.174Z,4.60
2018-09-19T17:14:09.415Z,4.93
2018-09-19T17:16:37.681Z,4.37
2018-09-19T17:19:05.935Z,5.10
2018-09-19T17:21:34.211Z,4.97
2018-09-19T17:24:02.389Z,4.77
2018-09-19T17:26:30.614Z,4.70
2018-09-19T17:28:58.869Z,4.67
2018-09-19T17:31:27.089Z,4.77
2018-09-19T17:33:55.317Z,4.67
2018-09-19T17:36:23.546Z,4.77
2018-09-19T17:38:51.793Z,4.67
2018-09-19T17:41:20.011Z,5.63
2018-09-19T17:43:48.233Z,4.93
2018-09-19T17:46:16.494Z,4.80
2018-09-19T17:48:44.718Z,4.53
2018-09-19T17:51:12.975Z,5.13
2018-09-19T17:53:41.197Z,5.00
2018-09-19T17:56:09.438Z,5.37
2018-09-19T17:58:38.356Z,5.37
2018-09-19T18:01:06.613Z,4.63
2018-09-19T18:03:34.870Z,5.10
2018-09-19T18:06:03.120Z,5.03
2018-09-19T18:08:31.333Z,4.80
2018-09-19T18:10:59.570Z,4.77
2018-09-19T18:13:27.778Z,5.10
2018-09-19T18:15:55.998Z,5.20
2018-09-19T18:18:24.222Z,5.33
2018-09-19T18:20:52.518Z,5.70
2018-09-19T18:23:20.747Z,5.30
2018-09-19T18:25:48.959Z,5.30
2018-09-19T18:28:17.220Z,5.40
2018-09-19T18:30:45.581Z,5.17
2018-09-19T18:33:13.801Z,5.63
2018-09-19T18:35:42.021Z,5.63
2018-09-19T18:38:10.302Z,5.93
2018-09-19T18:40:38.510Z,4.97
2018-09-19T18:43:06.745Z,5.27
2018-09-19T18:45:34.982Z,5.80
2018-09-19T18:48:03.962Z,5.23
2018-09-19T18:50:32.282Z,4.67
2018-09-19T18:53:00.541Z,5.47
2018-09-19T18:55:29.345Z,5.90
2018-09-19T18:57:57.589Z,5.43
2018-09-19T19:00:25.790Z,4.90
2018-09-19T19:02:54.037Z,5.60
2018-09-19T19:05:22.270Z,5.80
2018-09-19T19:07:50.565Z,5.93
2018-09-19T19:10:18.766Z,5.73
2018-09-19T19:12:46.995Z,5.93
2018-09-19T19:15:15.208Z,6.03
2018-09-19T19:17:43.445Z,5.63
2018-09-19T19:20:11.963Z,6.10
2018-09-19T19:22:40.194Z,6.10
2018-09-19T19:25:08.442Z,6.43
2018-09-19T19:27:36.682Z,5.90
2018-09-19T19:30:05.129Z,5.77
2018-09-19T19:32:33.343Z,5.20
2018-09-19T19:35:01.581Z,6.13
2018-09-19T19:37:29.883Z,6.20
2018-09-19T19:39:58.110Z,5.67
2018-09-19T19:42:26.338Z,5.80
2018-09-19T19:44:55.621Z,5.70
2018-09-19T19:47:23.846Z,7.40
2018-09-19T19:49:52.066Z,6.93
2018-09-19T19:52:20.342Z,6.50
2018-09-19T19:54:48.581Z,6.37
2018-09-19T19:57:16.800Z,5.67
2018-09-19T19:59:45.012Z,6.37
2018-09-19T20:02:13.195Z,6.20
2018-09-19T20:04:41.401Z,6.10
2018-09-19T20:07:09.690Z,6.00
2018-09-19T20:09:37.917Z,5.60
2018-09-19T20:12:06.191Z,5.97
2018-09-19T20:14:34.434Z,9.30
2018-09-19T20:17:02.619Z,5.90
2018-09-19T20:19:30.922Z,5.80
2018-09-19T20:21:59.215Z,6.00
2018-09-19T20:24:27.402Z,6.30
2018-09-19T20:26:56.923Z,6.33
2018-09-19T20:29:25.125Z,5.83
2018-09-19T20:31:53.306Z,6.20
2018-09-19T20:34:21.594Z,5.90
2018-09-19T20:36:50.381Z,5.70
2018-09-19T20:39:18.564Z,5.17
2018-09-19T20:41:46.738Z,6.30
2018-09-19T20:44:15.025Z,6.87
2018-09-19T20:46:43.225Z,5.93
2018-09-19T20:49:11.421Z,6.37
2018-09-19T20:51:39.627Z,5.40
2018-09-19T20:54:07.923Z,6.43
2018-09-19T20:56:36.152Z,5.97
2018-09-19T20:59:05.906Z,6.80
2018-09-19T21:01:34.082Z,5.90
2018-09-19T21:04:02.442Z,5.40
2018-09-19T21:06:30.632Z,6.07
2018-09-19T21:08:58.806Z,6.30
2018-09-19T21:11:26.998Z,5.83
2018-09-19T21:13:55.514Z,6.27
2018-09-19T21:16:23.838Z,6.57
2018-09-19T21:18:52.740Z,6.33
2018-09-19T21:21:21.061Z,6.00
2018-09-19T21:23:49.311Z,6.43
2018-09-19T21:26:17.537Z,6.40
2018-09-19T21:28:45.761Z,5.60
2018-09-19T21:31:13.973Z,5.87
2018-09-19T21:33:42.202Z,6.13
2018-09-19T21:36:10.438Z,6.20
2018-09-19T21:38:38.646Z,5.90
2018-09-19T21:41:06.991Z,6.00
2018-09-19T21:43:35.206Z,5.90
2018-09-19T21:46:03.448Z,6.27
2018-09-19T21:48:31.735Z,6.27
2018-09-19T21:50:59.913Z,5.97
2018-09-19T21:53:28.229Z,5.80
2018-09-19T21:55:56.466Z,5.80
2018-09-19T21:58:24.690Z,5.67
2018-09-19T22:00:58.401Z,5.90
2018-09-19T22:03:26.630Z,6.10
2018-09-19T22:05:55.001Z,6.60
2018-09-19T22:08:23.351Z,6.00
2018-09-19T22:10:51.557Z,5.80
2018-09-19T22:13:19.808Z,6.37
2018-09-19T22:15:48.017Z,6.30
2018-09-19T22:18:17.474Z,5.77
2018-09-19T22:20:45.765Z,5.83
2018-09-19T22:23:13.990Z,6.67
2018-09-19T22:25:42.205Z,6.13
2018-09-19T22:28:10.501Z,6.10
2018-09-19T22:30:38.697Z,6.10
2018-09-19T22:33:07.027Z,6.53
2018-09-19T22:35:35.509Z,6.73
2018-09-19T22:38:03.746Z,6.60
2018-09-19T22:40:31.956Z,6.53
2018-09-19T22:43:00.170Z,5.93
2018-09-19T22:45:28.392Z,6.63
2018-09-19T22:47:56.640Z,6.50
2018-09-19T22:50:24.914Z,6.93
2018-09-19T22:52:53.129Z,6.70
2018-09-19T22:55:21.362Z,6.50
2018-09-19T22:57:49.583Z,6.30
2018-09-19T23:00:17.793Z,6.30
2018-09-19T23:02:46.014Z,5.80
2018-09-19T23:05:14.253Z,6.27
2018-09-19T23:07:42.462Z,6.43
2018-09-19T23:10:10.690Z,6.73
2018-09-19T23:12:38.924Z,6.07
2018-09-19T23:15:07.174Z,6.03
2018-09-19T23:17:35.413Z,6.73
2018-09-19T23:20:03.674Z,6.53
2018-09-19T23:22:31.935Z,6.70
2018-09-19T23:25:00.137Z,6.20
2018-09-19T23:27:28.382Z,6.33
2018-09-19T23:29:56.579Z,6.30
2018-09-19T23:32:24.793Z,6.00
2018-09-19T23:34:53.014Z,5.17
2018-09-19T23:37:21.243Z,6.07
2018-09-19T23:39:49.474Z,5.87
2018-09-19T23:42:17.703Z,5.73
2018-09-19T23:44:45.937Z,6.00
2018-09-19T23:47:14.282Z,5.83
2018-09-19T23:49:42.550Z,5.87
2018-09-19T23:52:10.764Z,5.77
2018-09-19T23:54:38.989Z,6.03
2018-09-19T23:57:07.203Z,5.93
2018-09-19T23:59:35.438Z,6.00
